createdAt,value
2019-01-21T00:00:04.349Z,99.99
2019-01-21T00:01:04.292Z,99.99
2019-01-21T00:02:04.246Z,99.99
2019-01-21T00:03:04.193Z,99.99
2019-01-21T00:04:04.171Z,99.99
2019-01-21T00:05:04.138Z,99.99
2019-01-21T00:06:04.067Z,99.99
2019-01-21T00:07:04.029Z,99.99
2019-01-21T00:08:03.982Z,99.99
2019-01-21T00:09:03.947Z,99.99
2019-01-21T00:10:03.893Z,99.99
2019-01-21T00:11:03.850Z,99.99
2019-01-21T00:12:03.812Z,99.99
2019-01-21T00:13:03.762Z,99.99
2019-01-21T00:14:03.714Z,99.99
2019-01-21T00:15:03.665Z,99.99
2019-01-21T00:16:03.620Z,99.99
2019-01-21T00:17:03.589Z,99.99
2019-01-21T00:18:03.544Z,99.99
2019-01-21T00:19:03.492Z,99.99
2019-01-21T00:20:03.441Z,99.99
2019-01-21T00:21:03.409Z,99.99
2019-01-21T00:22:03.343Z,99.99
2019-01-21T00:23:03.301Z,99.99
2019-01-21T00:24:03.275Z,99.99
2019-01-21T00:25:03.233Z,99.99
2019-01-21T00:26:03.189Z,99.99
2019-01-21T00:27:03.131Z,99.99
2019-01-21T00:28:03.097Z,99.99
2019-01-21T00:29:03.031Z,99.99
2019-01-21T00:30:02.986Z,99.99
2019-01-21T00:31:02.954Z,99.99
2019-01-21T00:32:02.910Z,99.99
2019-01-21T00:33:02.865Z,99.99
2019-01-21T00:34:02.820Z,99.99
2019-01-21T00:35:02.784Z,99.99
2019-01-21T00:36:02.718Z,99.99
2019-01-21T00:37:03.527Z,99.99
2019-01-21T00:38:02.642Z,99.99
2019-01-21T00:39:02.599Z,99.99
2019-01-21T00:40:02.554Z,99.99
2019-01-21T00:41:02.529Z,99.99
2019-01-21T00:42:02.459Z,99.99
2019-01-21T00:43:02.414Z,99.99
2019-01-21T00:44:02.375Z,99.99
2019-01-21T00:45:02.338Z,99.99
2019-01-21T00:46:02.305Z,99.99
2019-01-21T00:47:02.249Z,99.99
2019-01-21T00:48:02.199Z,99.99
2019-01-21T00:49:02.152Z,99.99
2019-01-21T00:50:02.115Z,99.99
2019-01-21T00:51:02.064Z,99.99
2019-01-21T00:52:02.026Z,99.99
2019-01-21T00:53:01.960Z,99.99
2019-01-21T00:54:01.937Z,99.99
2019-01-21T00:55:01.872Z,99.99
2019-01-21T00:56:01.896Z,99.99
2019-01-21T00:57:01.790Z,99.99
2019-01-21T00:58:01.745Z,99.99
2019-01-21T00:59:01.692Z,99.99
2019-01-21T01:00:01.679Z,99.99
2019-01-21T01:01:01.603Z,99.99
2019-01-21T01:02:01.580Z,99.99
2019-01-21T01:03:01.537Z,99.99
2019-01-21T01:04:01.477Z,99.99
2019-01-21T01:05:01.497Z,99.99
2019-01-21T01:06:01.401Z,99.99
2019-01-21T01:07:01.359Z,99.99
2019-01-21T01:08:01.293Z,99.99
2019-01-21T01:09:01.246Z,99.99
2019-01-21T01:10:01.231Z,99.99
2019-01-21T01:11:01.157Z,99.99
2019-01-21T01:12:01.120Z,99.99
2019-01-21T01:13:01.105Z,99.99
2019-01-21T01:14:01.031Z,99.99
2019-01-21T01:15:00.993Z,99.99
2019-01-21T01:16:00.943Z,99.99
2019-01-21T01:17:00.901Z,99.99
2019-01-21T01:18:00.867Z,99.99
2019-01-21T01:19:00.814Z,99.99
2019-01-21T01:20:00.776Z,99.99
2019-01-21T01:21:00.723Z,99.99
2019-01-21T01:22:00.688Z,99.99
2019-01-21T01:23:00.679Z,99.99
2019-01-21T01:24:00.584Z,99.99
2019-01-21T01:25:00.531Z,99.99
2019-01-21T01:26:00.499Z,99.99
2019-01-21T01:27:00.478Z,99.99
2019-01-21T01:28:00.420Z,99.99
2019-01-21T01:29:00.374Z,99.99
2019-01-21T01:30:00.322Z,99.99
2019-01-21T01:31:00.284Z,99.99
2019-01-21T01:32:00.241Z,99.99
2019-01-21T01:33:00.189Z,99.99
2019-01-21T01:34:00.150Z,99.99
2019-01-21T01:35:00.263Z,99.99
2019-01-21T01:36:00.049Z,99.99
2019-01-21T01:36:59.945Z,99.99
2019-01-21T01:37:59.972Z,99.99
2019-01-21T01:38:59.929Z,99.99
2019-01-21T01:39:59.885Z,99.99
2019-01-21T01:40:59.837Z,99.99
2019-01-21T01:41:59.783Z,99.99
2019-01-21T01:42:59.750Z,99.99
2019-01-21T01:43:59.698Z,99.99
2019-01-21T01:44:59.645Z,99.99
2019-01-21T01:45:59.604Z,99.99
2019-01-21T01:46:59.565Z,99.99
2019-01-21T01:47:59.523Z,99.99
2019-01-21T01:48:59.466Z,99.99
2019-01-21T01:49:59.425Z,99.99
2019-01-21T01:50:59.453Z,99.99
2019-01-21T01:51:59.356Z,99.99
2019-01-21T01:52:59.286Z,99.99
2019-01-21T01:53:59.237Z,99.99
2019-01-21T01:54:59.202Z,99.99
2019-01-21T01:55:59.143Z,99.99
2019-01-21T01:56:59.099Z,99.99
2019-01-21T01:57:59.075Z,99.99
2019-01-21T01:58:59.025Z,99.99
2019-01-21T01:59:58.973Z,99.99
2019-01-21T02:00:58.932Z,99.99
2019-01-21T02:01:58.875Z,99.99
2019-01-21T02:02:58.851Z,99.99
2019-01-21T02:03:58.798Z,99.99
2019-01-21T02:04:58.748Z,99.99
2019-01-21T02:05:58.698Z,99.99
2019-01-21T02:06:58.664Z,99.99
2019-01-21T02:07:58.619Z,99.99
2019-01-21T02:08:58.576Z,99.99
2019-01-21T02:09:58.516Z,99.99
2019-01-21T02:10:58.471Z,99.99
2019-01-21T02:11:58.449Z,99.99
2019-01-21T02:12:58.403Z,99.99
2019-01-21T02:13:58.360Z,99.99
2019-01-21T02:14:58.293Z,99.99
2019-01-21T02:15:58.268Z,99.99
2019-01-21T02:16:58.215Z,99.99
2019-01-21T02:17:58.163Z,99.99
2019-01-21T02:18:58.136Z,99.99
2019-01-21T02:19:58.072Z,99.99
2019-01-21T02:20:58.036Z,99.99
2019-01-21T02:21:57.986Z,99.99
2019-01-21T02:22:57.948Z,99.99
2019-01-21T02:23:57.917Z,99.99
2019-01-21T02:24:57.853Z,99.99
2019-01-21T02:25:57.798Z,99.99
2019-01-21T02:26:57.762Z,99.99
2019-01-21T02:27:57.719Z,99.99
2019-01-21T02:28:57.673Z,99.99
2019-01-21T02:29:57.628Z,99.99
2019-01-21T02:30:57.575Z,99.99
2019-01-21T02:31:57.552Z,99.99
2019-01-21T02:32:57.499Z,99.99
2019-01-21T02:33:57.455Z,99.99
2019-01-21T02:34:57.414Z,99.99
2019-01-21T02:35:57.365Z,99.99
2019-01-21T02:36:57.328Z,99.99
2019-01-21T02:37:57.281Z,99.99
2019-01-21T02:38:57.230Z,99.99
2019-01-21T02:39:57.196Z,99.99
2019-01-21T02:40:57.150Z,99.99
2019-01-21T02:41:57.092Z,99.99
2019-01-21T02:42:57.049Z,99.99
2019-01-21T02:43:57.016Z,99.99
2019-01-21T02:44:56.962Z,99.99
2019-01-21T02:45:56.917Z,99.99
2019-01-21T02:46:56.881Z,99.99
2019-01-21T02:48:00.198Z,99.99
2019-01-21T02:48:56.792Z,99.99
2019-01-21T02:49:56.748Z,99.99
2019-01-21T02:50:56.707Z,99.99
2019-01-21T02:51:56.638Z,99.99
2019-01-21T02:52:56.614Z,99.99
2019-01-21T02:53:56.565Z,99.99
2019-01-21T02:54:56.507Z,99.99
2019-01-21T02:55:56.460Z,99.99
2019-01-21T02:56:56.415Z,99.99
2019-01-21T02:57:56.380Z,99.99
2019-01-21T02:58:56.349Z,99.99
2019-01-21T02:59:56.296Z,99.99
2019-01-21T03:00:56.276Z,99.99
2019-01-21T03:01:56.194Z,99.99
2019-01-21T03:02:56.148Z,99.99
2019-01-21T03:03:56.123Z,99.99
2019-01-21T03:04:56.067Z,99.99
2019-01-21T03:05:56.014Z,99.99
2019-01-21T03:06:55.978Z,99.99
2019-01-21T03:07:55.941Z,99.99
2019-01-21T03:08:55.897Z,99.99
2019-01-21T03:09:55.853Z,99.99
2019-01-21T03:10:55.802Z,99.99
2019-01-21T03:11:55.780Z,99.99
2019-01-21T03:12:55.724Z,99.99
2019-01-21T03:13:55.658Z,99.99
2019-01-21T03:14:55.628Z,99.99
2019-01-21T03:15:55.573Z,99.99
2019-01-21T03:16:55.546Z,99.99
2019-01-21T03:17:55.497Z,99.99
2019-01-21T03:18:55.436Z,99.99
2019-01-21T03:19:55.419Z,99.99
2019-01-21T03:20:55.369Z,99.99
2019-01-21T03:21:55.316Z,99.99
2019-01-21T03:22:55.279Z,99.99
2019-01-21T03:23:55.235Z,99.99
2019-01-21T03:24:55.208Z,99.99
2019-01-21T03:25:55.133Z,99.99
2019-01-21T03:26:55.080Z,99.99
2019-01-21T03:27:55.057Z,99.99
2019-01-21T03:28:55.005Z,99.99
2019-01-21T03:29:54.959Z,99.99
2019-01-21T03:30:54.903Z,99.99
2019-01-21T03:31:54.873Z,99.99
2019-01-21T03:32:54.827Z,99.99
2019-01-21T03:33:54.800Z,99.99
2019-01-21T03:34:54.755Z,99.99
2019-01-21T03:35:54.702Z,99.99
2019-01-21T03:36:54.649Z,99.99
2019-01-21T03:37:54.598Z,99.99
2019-01-21T03:38:54.548Z,99.99
2019-01-21T03:39:54.509Z,99.99
2019-01-21T03:40:54.479Z,99.99
2019-01-21T03:41:54.433Z,99.99
2019-01-21T03:42:54.368Z,99.99
2019-01-21T03:43:54.324Z,99.99
2019-01-21T03:44:54.291Z,99.99
2019-01-21T03:45:54.243Z,99.99
2019-01-21T03:46:54.189Z,99.99
2019-01-21T03:47:54.153Z,99.99
2019-01-21T03:48:54.110Z,99.99
2019-01-21T03:49:54.063Z,99.99
2019-01-21T03:50:54.020Z,99.99
2019-01-21T03:51:53.979Z,99.99
2019-01-21T03:52:53.943Z,99.99
2019-01-21T03:53:53.887Z,99.99
2019-01-21T03:54:53.859Z,99.99
2019-01-21T03:55:53.788Z,99.99
2019-01-21T03:56:53.765Z,99.99
2019-01-21T03:57:53.699Z,99.99
2019-01-21T03:58:53.654Z,99.99
2019-01-21T03:59:53.622Z,99.99
2019-01-21T04:00:53.580Z,99.99
2019-01-21T04:01:53.535Z,99.99
2019-01-21T04:02:53.502Z,99.99
2019-01-21T04:03:53.439Z,99.99
2019-01-21T04:04:53.402Z,99.99
2019-01-21T04:05:53.352Z,99.99
2019-01-21T04:06:53.311Z,99.99
2019-01-21T04:07:53.253Z,99.99
2019-01-21T04:08:53.218Z,99.99
2019-01-21T04:09:53.181Z,99.99
2019-01-21T04:10:53.120Z,99.99
2019-01-21T04:11:53.075Z,99.99
2019-01-21T04:12:53.041Z,99.99
2019-01-21T04:13:53.000Z,99.99
2019-01-21T04:14:53.003Z,99.99
2019-01-21T04:15:52.930Z,99.99
2019-01-21T04:16:52.853Z,99.99
2019-01-21T04:17:52.818Z,99.99
2019-01-21T04:18:52.788Z,99.99
2019-01-21T04:19:52.741Z,99.99
2019-01-21T04:20:52.697Z,99.99
2019-01-21T04:21:52.640Z,99.99
2019-01-21T04:22:52.600Z,99.99
2019-01-21T04:23:52.556Z,99.99
2019-01-21T04:24:52.512Z,99.99
2019-01-21T04:25:52.469Z,99.99
2019-01-21T04:26:52.422Z,99.99
2019-01-21T04:27:52.377Z,99.99
2019-01-21T04:28:52.328Z,99.99
2019-01-21T04:29:52.297Z,99.99
2019-01-21T04:30:52.231Z,99.99
2019-01-21T04:31:52.215Z,99.99
2019-01-21T04:32:52.182Z,99.99
2019-01-21T04:33:52.123Z,99.99
2019-01-21T04:34:52.055Z,99.99
2019-01-21T04:35:52.018Z,99.99
2019-01-21T04:36:51.977Z,99.99
2019-01-21T04:37:51.929Z,99.99
2019-01-21T04:38:51.884Z,99.99
2019-01-21T04:39:51.862Z,99.99
2019-01-21T04:40:51.787Z,99.99
2019-01-21T04:41:51.763Z,99.99
2019-01-21T04:42:51.702Z,99.99
2019-01-21T04:43:51.662Z,99.99
2019-01-21T04:44:51.609Z,99.99
2019-01-21T04:45:51.566Z,99.99
2019-01-21T04:46:51.528Z,99.99
2019-01-21T04:47:51.489Z,99.99
2019-01-21T04:48:51.431Z,99.99
2019-01-21T04:49:51.411Z,99.99
2019-01-21T04:50:51.363Z,99.99
2019-01-21T04:51:51.308Z,99.99
2019-01-21T04:52:51.271Z,99.99
2019-01-21T04:53:51.253Z,99.99
2019-01-21T04:54:51.189Z,99.99
2019-01-21T04:55:51.135Z,99.99
2019-01-21T04:56:51.075Z,99.99
2019-01-21T04:57:51.052Z,99.99
2019-01-21T04:58:50.986Z,99.99
2019-01-21T04:59:50.941Z,99.99
2019-01-21T05:00:50.918Z,99.99
2019-01-21T05:01:50.852Z,99.99
2019-01-21T05:02:50.808Z,99.99
2019-01-21T05:03:50.789Z,99.99
2019-01-21T05:04:50.741Z,99.99
2019-01-21T05:05:50.696Z,99.99
2019-01-21T05:06:50.653Z,99.99
2019-01-21T05:07:50.600Z,99.99
2019-01-21T05:08:50.562Z,99.99
2019-01-21T05:09:50.496Z,99.99
2019-01-21T05:10:50.472Z,99.99
2019-01-21T05:11:50.408Z,99.99
2019-01-21T05:12:50.372Z,99.99
2019-01-21T05:13:50.325Z,99.99
2019-01-21T05:14:50.281Z,99.99
2019-01-21T05:15:50.247Z,99.99
2019-01-21T05:16:50.204Z,99.99
2019-01-21T05:17:50.145Z,99.99
2019-01-21T05:18:50.107Z,99.99
2019-01-21T05:19:50.050Z,99.99
2019-01-21T05:20:50.026Z,99.99
2019-01-21T05:21:49.990Z,99.99
2019-01-21T05:22:49.924Z,99.99
2019-01-21T05:23:49.883Z,99.99
2019-01-21T05:24:49.847Z,99.99
2019-01-21T05:25:49.789Z,99.99
2019-01-21T05:26:49.738Z,99.99
2019-01-21T05:27:49.714Z,99.99
2019-01-21T05:28:49.647Z,99.99
2019-01-21T05:29:49.638Z,99.99
2019-01-21T05:30:49.567Z,99.99
2019-01-21T05:31:49.535Z,99.99
2019-01-21T05:32:49.491Z,99.99
2019-01-21T05:33:49.454Z,99.99
2019-01-21T05:34:49.398Z,99.99
2019-01-21T05:35:49.349Z,99.99
2019-01-21T05:36:49.312Z,99.99
2019-01-21T05:37:49.254Z,99.99
2019-01-21T05:38:49.214Z,99.99
2019-01-21T05:39:49.179Z,99.99
2019-01-21T05:40:49.127Z,99.99
2019-01-21T05:41:49.080Z,99.99
2019-01-21T05:42:49.056Z,99.99
2019-01-21T05:43:48.991Z,99.99
2019-01-21T05:44:48.946Z,99.99
2019-01-21T05:45:48.889Z,99.99
2019-01-21T05:46:48.861Z,99.99
2019-01-21T05:47:48.822Z,99.99
2019-01-21T05:48:49.292Z,99.99
2019-01-21T05:49:48.732Z,99.99
2019-01-21T05:50:48.679Z,99.99
2019-01-21T05:51:48.632Z,99.99
2019-01-21T05:52:48.586Z,99.99
2019-01-21T05:53:48.546Z,99.99
2019-01-21T05:54:48.500Z,99.99
2019-01-21T05:55:48.465Z,99.99
2019-01-21T05:56:48.407Z,99.99
2019-01-21T05:57:48.365Z,99.99
2019-01-21T05:58:48.330Z,99.99
2019-01-21T05:59:48.297Z,99.99
2019-01-21T06:00:48.228Z,99.99
2019-01-21T06:01:48.196Z,99.99
2019-01-21T06:02:48.137Z,99.99
2019-01-21T06:03:48.085Z,99.99
2019-01-21T06:04:48.072Z,99.99
2019-01-21T06:05:48.009Z,99.99
2019-01-21T06:06:47.951Z,99.99
2019-01-21T06:07:47.915Z,99.99
2019-01-21T06:08:47.876Z,99.99
2019-01-21T06:09:47.831Z,99.99
2019-01-21T06:10:47.796Z,99.99
2019-01-21T06:11:47.749Z,99.99
2019-01-21T06:12:47.686Z,99.99
2019-01-21T06:13:47.652Z,99.99
2019-01-21T06:14:47.622Z,99.99
2019-01-21T06:15:47.570Z,99.99
2019-01-21T06:16:47.505Z,99.99
2019-01-21T06:17:47.494Z,99.99
2019-01-21T06:18:47.430Z,99.99
2019-01-21T06:19:47.393Z,99.99
2019-01-21T06:20:47.327Z,99.99
2019-01-21T06:21:47.303Z,99.99
2019-01-21T06:22:47.257Z,99.99
2019-01-21T06:23:47.214Z,99.99
2019-01-21T06:24:47.173Z,99.99
2019-01-21T06:25:47.116Z,99.99
2019-01-21T06:26:47.067Z,99.99
2019-01-21T06:27:47.035Z,99.99
2019-01-21T06:28:46.997Z,99.99
2019-01-21T06:29:46.952Z,99.99
2019-01-21T06:30:46.889Z,99.99
2019-01-21T06:31:46.848Z,99.99
2019-01-21T06:32:46.841Z,99.99
2019-01-21T06:33:46.766Z,99.99
2019-01-21T06:34:46.712Z,99.99
2019-01-21T06:35:46.666Z,99.99
2019-01-21T06:36:46.629Z,99.99
2019-01-21T06:37:46.581Z,99.99
2019-01-21T06:38:46.544Z,99.99
2019-01-21T06:39:46.508Z,99.99
2019-01-21T06:40:46.434Z,99.99
2019-01-21T06:41:46.399Z,99.99
2019-01-21T06:42:46.366Z,99.99
2019-01-21T06:43:46.309Z,99.99
2019-01-21T06:44:46.283Z,99.99
2019-01-21T06:45:46.219Z,99.99
2019-01-21T06:46:46.174Z,99.99
2019-01-21T06:47:46.130Z,99.99
2019-01-21T06:48:46.090Z,99.99
2019-01-21T06:49:46.042Z,99.99
2019-01-21T06:50:46.015Z,99.99
2019-01-21T06:51:45.956Z,99.99
2019-01-21T06:52:45.906Z,99.99
2019-01-21T06:53:45.854Z,99.99
2019-01-21T06:54:45.817Z,99.99
2019-01-21T06:55:45.764Z,99.99
2019-01-21T06:56:47.549Z,99.99
2019-01-21T06:57:45.688Z,99.99
2019-01-21T06:58:45.651Z,99.99
2019-01-21T06:59:45.607Z,99.99
2019-01-21T07:00:45.549Z,99.99
2019-01-21T07:01:45.507Z,99.99
2019-01-21T07:02:45.460Z,99.99
2019-01-21T07:03:45.415Z,99.99
2019-01-21T07:04:45.374Z,99.99
2019-01-21T07:05:45.326Z,99.99
2019-01-21T07:06:45.293Z,99.99
2019-01-21T07:07:45.242Z,99.99
2019-01-21T07:08:45.192Z,99.99
2019-01-21T07:09:45.141Z,99.99
2019-01-21T07:10:45.115Z,99.99
2019-01-21T07:11:45.070Z,99.99
2019-01-21T07:12:45.012Z,99.99
2019-01-21T07:13:44.981Z,99.99
2019-01-21T07:14:44.926Z,99.99
2019-01-21T07:15:44.892Z,99.99
2019-01-21T07:16:44.847Z,99.99
2019-01-21T07:17:44.789Z,99.99
2019-01-21T07:18:44.749Z,99.99
2019-01-21T07:19:46.288Z,99.99
2019-01-21T07:20:44.668Z,99.99
2019-01-21T07:21:44.610Z,99.99
2019-01-21T07:22:44.565Z,99.99
2019-01-21T07:23:44.521Z,99.99
2019-01-21T07:24:44.476Z,99.99
2019-01-21T07:25:44.431Z,99.99
2019-01-21T07:26:44.400Z,99.99
2019-01-21T07:27:44.297Z,99.99
2019-01-21T07:28:44.303Z,99.99
2019-01-21T07:29:44.245Z,99.99
2019-01-21T07:30:44.208Z,99.99
2019-01-21T07:31:44.155Z,99.99
2019-01-21T07:32:44.110Z,99.99
2019-01-21T07:33:44.087Z,99.99
2019-01-21T07:34:44.021Z,99.99
2019-01-21T07:35:43.984Z,99.99
2019-01-21T07:36:43.953Z,99.99
2019-01-21T07:37:43.895Z,99.99
2019-01-21T07:38:43.842Z,99.99
2019-01-21T07:39:43.805Z,99.99
2019-01-21T07:40:43.774Z,99.99
2019-01-21T07:41:43.709Z,99.99
2019-01-21T07:42:43.671Z,99.99
2019-01-21T07:43:43.659Z,99.99
2019-01-21T07:44:43.606Z,99.99
2019-01-21T07:45:43.543Z,99.99
2019-01-21T07:46:43.503Z,99.99
2019-01-21T07:47:43.460Z,99.99
2019-01-21T07:48:43.412Z,99.99
2019-01-21T07:49:43.350Z,99.99
2019-01-21T07:50:43.319Z,99.99
2019-01-21T07:51:43.278Z,99.99
2019-01-21T07:52:43.228Z,99.99
2019-01-21T07:53:43.184Z,99.99
2019-01-21T07:54:43.159Z,99.99
2019-01-21T07:55:43.103Z,99.99
2019-01-21T07:56:43.045Z,99.99
2019-01-21T07:57:43.004Z,99.99
2019-01-21T07:58:42.960Z,99.99
2019-01-21T07:59:42.915Z,99.99
2019-01-21T08:00:42.884Z,99.99
2019-01-21T08:01:42.812Z,99.99
2019-01-21T08:02:42.789Z,99.99
2019-01-21T08:03:42.723Z,99.99
2019-01-21T08:04:42.686Z,99.99
2019-01-21T08:05:42.656Z,99.99
2019-01-21T08:06:42.603Z,99.99
2019-01-21T08:07:42.544Z,99.99
2019-01-21T08:08:42.507Z,99.99
2019-01-21T08:09:42.462Z,99.99
2019-01-21T08:10:42.409Z,99.99
2019-01-21T08:11:42.373Z,99.99
2019-01-21T08:12:42.341Z,99.99
2019-01-21T08:13:42.287Z,99.99
2019-01-21T08:14:42.251Z,99.99
2019-01-21T08:15:42.194Z,99.99
2019-01-21T08:16:42.150Z,99.99
2019-01-21T08:17:42.104Z,99.99
2019-01-21T08:18:42.059Z,99.99
2019-01-21T08:19:42.006Z,99.99
2019-01-21T08:20:41.975Z,99.99
2019-01-21T08:21:41.927Z,99.99
2019-01-21T08:22:41.872Z,99.99
2019-01-21T08:23:41.848Z,99.99
2019-01-21T08:24:41.795Z,99.99
2019-01-21T08:25:41.754Z,99.99
2019-01-21T08:26:41.700Z,99.99
2019-01-21T08:27:41.681Z,99.99
2019-01-21T08:28:41.615Z,99.99
2019-01-21T08:29:41.567Z,99.99
2019-01-21T08:30:41.539Z,99.99
2019-01-21T08:31:41.468Z,99.99
2019-01-21T08:32:41.444Z,99.99
2019-01-21T08:33:41.379Z,99.99
2019-01-21T08:34:41.355Z,99.99
2019-01-21T08:35:41.301Z,99.99
2019-01-21T08:36:41.252Z,99.99
2019-01-21T08:37:41.207Z,99.99
2019-01-21T08:38:41.167Z,99.99
2019-01-21T08:39:41.110Z,99.99
2019-01-21T08:40:41.079Z,99.99
2019-01-21T08:41:41.020Z,99.99
2019-01-21T08:42:40.999Z,99.99
2019-01-21T08:43:40.948Z,99.99
2019-01-21T08:44:40.885Z,99.99
2019-01-21T08:45:40.848Z,99.99
2019-01-21T08:46:40.830Z,99.99
2019-01-21T08:47:40.751Z,99.99
2019-01-21T08:48:40.706Z,99.99
2019-01-21T08:49:40.715Z,99.99
2019-01-21T08:50:40.650Z,99.99
2019-01-21T08:51:40.584Z,99.99
2019-01-21T08:52:40.539Z,99.99
2019-01-21T08:53:40.495Z,99.99
2019-01-21T08:54:40.459Z,99.99
2019-01-21T08:55:40.413Z,99.99
2019-01-21T08:56:40.361Z,99.99
2019-01-21T08:57:40.315Z,99.99
2019-01-21T08:58:40.301Z,99.99
2019-01-21T08:59:40.238Z,99.99
2019-01-21T09:00:40.169Z,99.99
2019-01-21T09:01:40.097Z,99.99
2019-01-21T09:02:40.086Z,99.99
2019-01-21T09:03:40.057Z,99.99
2019-01-21T09:04:40.011Z,99.99
2019-01-21T09:05:39.945Z,99.99
2019-01-21T09:06:39.912Z,99.99
2019-01-21T09:07:39.894Z,99.99
2019-01-21T09:08:39.834Z,99.99
2019-01-21T09:09:39.781Z,99.99
2019-01-21T09:10:39.742Z,99.99
2019-01-21T09:11:39.678Z,99.99
2019-01-21T09:12:39.673Z,99.99
2019-01-21T09:13:40.670Z,99.99
2019-01-21T09:14:39.542Z,99.99
2019-01-21T09:15:39.519Z,99.99
2019-01-21T09:16:39.474Z,99.99
2019-01-21T09:17:39.408Z,99.99
2019-01-21T09:18:39.377Z,99.99
2019-01-21T09:19:39.330Z,99.99
2019-01-21T09:20:39.283Z,99.99
2019-01-21T09:21:39.240Z,99.99
2019-01-21T09:22:39.199Z,99.99
2019-01-21T09:23:39.158Z,99.99
2019-01-21T09:24:39.107Z,99.99
2019-01-21T09:25:39.054Z,99.99
2019-01-21T09:26:39.032Z,99.99
2019-01-21T09:27:38.979Z,99.99
2019-01-21T09:28:38.922Z,99.99
2019-01-21T09:29:38.879Z,99.99
2019-01-21T09:30:38.842Z,99.99
2019-01-21T09:31:38.804Z,99.99
2019-01-21T09:32:38.755Z,99.99
2019-01-21T09:33:38.716Z,99.99
2019-01-21T09:34:38.670Z,99.99
2019-01-21T09:35:38.648Z,99.99
2019-01-21T09:36:38.594Z,99.99
2019-01-21T09:37:38.543Z,99.99
2019-01-21T09:38:38.487Z,99.99
2019-01-21T09:39:38.456Z,99.60
2019-01-21T09:40:38.401Z,98.30
2019-01-21T09:41:38.366Z,97.13
2019-01-21T09:42:38.328Z,97.23
2019-01-21T09:43:38.297Z,96.50
2019-01-21T09:44:38.272Z,97.66
2019-01-21T09:45:38.202Z,97.47
2019-01-21T09:46:38.159Z,96.11
2019-01-21T09:47:38.120Z,94.95
2019-01-21T09:48:38.088Z,93.63
2019-01-21T09:49:43.580Z,92.47
2019-01-21T09:50:38.003Z,92.03
2019-01-21T09:51:37.942Z,91.54
2019-01-21T09:52:37.915Z,90.61
2019-01-21T09:53:37.864Z,87.79
2019-01-21T09:54:37.836Z,87.70
2019-01-21T09:55:37.796Z,87.70
2019-01-21T09:56:37.748Z,88.38
2019-01-21T09:57:37.696Z,88.18
2019-01-21T09:58:37.659Z,88.76
2019-01-21T09:59:37.686Z,88.28
2019-01-21T10:00:37.591Z,87.45
2019-01-21T10:01:37.543Z,86.96
2019-01-21T10:02:37.495Z,87.25
2019-01-21T10:03:37.462Z,86.92
2019-01-21T10:04:37.424Z,87.25
2019-01-21T10:05:37.376Z,87.06
2019-01-21T10:06:37.350Z,85.16
2019-01-21T10:07:37.334Z,84.77
2019-01-21T10:08:37.276Z,84.03
2019-01-21T10:09:37.243Z,83.25
2019-01-21T10:10:37.225Z,82.51
2019-01-21T10:11:37.167Z,81.87
2019-01-21T10:12:37.120Z,79.86
2019-01-21T10:13:37.032Z,76.54
2019-01-21T10:14:37.056Z,74.89
2019-01-21T10:15:37.018Z,76.41
2019-01-21T10:16:36.970Z,76.61
2019-01-21T10:17:36.942Z,76.06
2019-01-21T10:18:36.898Z,73.43
2019-01-21T10:19:36.876Z,73.52
2019-01-21T10:20:36.834Z,74.69
2019-01-21T10:21:36.798Z,74.11
2019-01-21T10:22:36.741Z,72.58
2019-01-21T10:23:36.708Z,71.25
2019-01-21T10:24:36.671Z,72.52
2019-01-21T10:25:36.644Z,71.74
2019-01-21T10:26:36.609Z,71.84
2019-01-21T10:27:36.599Z,72.56
2019-01-21T10:28:36.534Z,71.97
2019-01-21T10:29:36.498Z,71.74
2019-01-21T10:30:36.478Z,70.34
2019-01-21T10:31:36.428Z,71.31
2019-01-21T10:32:36.407Z,71.57
2019-01-21T10:33:36.383Z,72.35
2019-01-21T10:34:36.336Z,72.45
2019-01-21T10:35:36.290Z,72.16
2019-01-21T10:36:36.328Z,72.35
2019-01-21T10:37:36.235Z,71.86
2019-01-21T10:38:36.197Z,73.23
2019-01-21T10:39:36.154Z,72.68
2019-01-21T10:40:36.137Z,72.68
2019-01-21T10:41:36.138Z,73.36
2019-01-21T10:42:36.054Z,72.84
2019-01-21T10:43:36.024Z,73.82
2019-01-21T10:44:36.011Z,73.91
2019-01-21T10:45:35.974Z,73.62
2019-01-21T10:46:35.946Z,73.23
2019-01-21T10:47:35.897Z,73.68
2019-01-21T10:48:35.872Z,74.27
2019-01-21T10:49:35.825Z,74.30
2019-01-21T10:50:36.131Z,73.72
2019-01-21T10:51:35.756Z,74.95
2019-01-21T10:52:35.713Z,75.14
2019-01-21T10:53:35.719Z,75.14
2019-01-21T10:54:35.663Z,74.17
2019-01-21T10:55:35.606Z,74.56
2019-01-21T10:56:35.574Z,73.88
2019-01-21T10:57:35.554Z,76.08
2019-01-21T10:58:35.504Z,76.04
2019-01-21T10:59:35.481Z,75.59
2019-01-21T11:00:35.419Z,75.98
2019-01-21T11:01:35.403Z,76.08
2019-01-21T11:02:35.356Z,75.98
2019-01-21T11:03:35.334Z,75.01
2019-01-21T11:04:35.308Z,75.59
2019-01-21T11:05:35.261Z,76.47
2019-01-21T11:06:35.197Z,75.10
2019-01-21T11:07:35.171Z,75.40
2019-01-21T11:08:35.133Z,75.79
2019-01-21T11:09:35.084Z,76.18
2019-01-21T11:10:35.041Z,77.15
2019-01-21T11:11:34.992Z,76.08
2019-01-21T11:12:34.960Z,76.86
2019-01-21T11:13:34.914Z,75.49
2019-01-21T11:14:34.894Z,76.47
2019-01-21T11:15:34.842Z,75.49
2019-01-21T11:16:34.830Z,75.20
2019-01-21T11:17:34.798Z,75.01
2019-01-21T11:18:34.720Z,75.01
2019-01-21T11:19:34.680Z,75.20
2019-01-21T11:20:34.658Z,76.08
2019-01-21T11:21:34.598Z,74.07
2019-01-21T11:22:34.567Z,74.43
2019-01-21T11:23:34.531Z,74.52
2019-01-21T11:24:34.478Z,75.79
2019-01-21T11:25:34.443Z,75.16
2019-01-21T11:26:34.399Z,77.25
2019-01-21T11:27:34.354Z,75.20
2019-01-21T11:28:34.319Z,73.84
2019-01-21T11:29:34.279Z,75.46
2019-01-21T11:30:34.225Z,74.49
2019-01-21T11:31:34.184Z,73.94
2019-01-21T11:32:34.109Z,74.46
2019-01-21T11:33:34.114Z,73.88
2019-01-21T11:34:34.072Z,73.49
2019-01-21T11:35:34.029Z,71.92
2019-01-21T11:36:33.988Z,73.10
2019-01-21T11:37:33.946Z,72.41
2019-01-21T11:38:33.913Z,72.55
2019-01-21T11:39:33.858Z,71.18
2019-01-21T11:40:33.829Z,70.70
2019-01-21T11:41:33.810Z,70.60
2019-01-21T11:42:33.743Z,69.92
2019-01-21T11:43:33.701Z,68.97
2019-01-21T11:44:33.674Z,69.53
2019-01-21T11:45:33.627Z,70.40
2019-01-21T11:46:33.579Z,69.43
2019-01-21T11:47:33.551Z,70.04
2019-01-21T11:48:33.511Z,70.24
2019-01-21T11:49:33.486Z,69.85
2019-01-21T11:50:33.431Z,69.40
2019-01-21T11:51:33.368Z,69.69
2019-01-21T11:52:33.342Z,69.40
2019-01-21T11:53:33.287Z,68.81
2019-01-21T11:54:33.249Z,68.42
2019-01-21T11:55:33.212Z,67.64
2019-01-21T11:56:33.185Z,67.64
2019-01-21T11:57:33.130Z,68.42
2019-01-21T11:58:33.103Z,67.05
2019-01-21T11:59:33.045Z,66.47
2019-01-21T12:00:33.022Z,66.76
2019-01-21T12:01:32.961Z,68.52
2019-01-21T12:02:32.941Z,68.23
2019-01-21T12:03:32.879Z,68.52
2019-01-21T12:04:32.856Z,69.98
2019-01-21T12:05:32.769Z,67.64
2019-01-21T12:06:32.766Z,67.64
2019-01-21T12:07:32.738Z,69.20
2019-01-21T12:08:32.676Z,68.91
2019-01-21T12:09:32.675Z,67.38
2019-01-21T12:10:32.621Z,67.09
2019-01-21T12:11:32.575Z,67.54
2019-01-21T12:12:32.523Z,68.07
2019-01-21T12:13:32.473Z,65.33
2019-01-21T12:14:32.457Z,64.26
2019-01-21T12:15:32.413Z,63.90
2019-01-21T12:16:32.361Z,64.87
2019-01-21T12:17:32.324Z,65.95
2019-01-21T12:18:32.280Z,66.34
2019-01-21T12:19:32.245Z,67.12
2019-01-21T12:20:32.202Z,66.44
2019-01-21T12:21:32.154Z,63.87
2019-01-21T12:22:32.123Z,66.60
2019-01-21T12:23:32.078Z,66.31
2019-01-21T12:24:32.050Z,65.63
2019-01-21T12:25:32.002Z,66.31
2019-01-21T12:26:31.961Z,67.19
2019-01-21T12:27:31.916Z,67.58
2019-01-21T12:28:31.867Z,67.29
2019-01-21T12:29:31.826Z,66.24
2019-01-21T12:30:31.799Z,65.53
2019-01-21T12:31:31.789Z,66.99
2019-01-21T12:32:31.731Z,66.60
2019-01-21T12:33:31.678Z,66.05
2019-01-21T12:34:31.664Z,64.78
2019-01-21T12:35:31.606Z,64.19
2019-01-21T12:36:31.584Z,65.36
2019-01-21T12:37:31.525Z,65.95
2019-01-21T12:38:31.480Z,64.42
2019-01-21T12:39:31.431Z,64.32
2019-01-21T12:40:31.424Z,63.83
2019-01-21T12:41:31.352Z,65.10
2019-01-21T12:42:31.316Z,64.15
2019-01-21T12:43:31.271Z,64.25
2019-01-21T12:44:31.236Z,63.86
2019-01-21T12:45:31.182Z,64.54
2019-01-21T12:46:31.199Z,63.47
2019-01-21T12:47:31.104Z,63.34
2019-01-21T12:48:31.121Z,64.22
2019-01-21T12:49:31.036Z,64.03
2019-01-21T12:50:30.995Z,63.83
2019-01-21T12:51:30.969Z,65.78